Time;durP1;ratioP1;P1;durP2;ratioP2;P2;SDS_P1;SDS_P2;PMS_P1;PMS_P2;Temp;Humidity;BMP_temperature;BMP_pressure;BME280_temperature;BME280_humidity;BME280_pressure;Samples;Min_cycle;Max_cycle;Signal;HPM_P1;HPM_P2
2022/05/27 00:00:21;;;;;;;16.85;4.35;;;14.50;99.90;;;;;;5053111;28;20070;-70
2022/05/27 00:02:50;;;;;;;15.73;3.67;;;14.50;99.90;;;;;;5053990;28;20048;-69
2022/05/27 00:05:17;;;;;;;16.25;4.28;;;14.50;99.90;;;;;;5053918;28;20044;-69
2022/05/27 00:07:43;;;;;;;17.60;3.70;;;14.40;99.90;;;;;;5071594;28;20398;-69
2022/05/27 00:10:10;;;;;;;19.38;5.75;;;14.40;99.90;;;;;;5053066;28;20037;-69
2022/05/27 00:12:36;;;;;;;16.83;3.85;;;14.50;99.90;;;;;;5053456;28;20514;-70
2022/05/27 00:15:02;;;;;;;20.20;4.45;;;14.40;99.90;;;;;;5053754;28;20068;-69
2022/05/27 00:17:28;;;;;;;20.42;4.35;;;14.30;99.90;;;;;;5069977;28;20119;-69
2022/05/27 00:19:53;;;;;;;15.30;4.07;;;14.50;99.90;;;;;;5070796;28;20120;-69
2022/05/27 00:22:19;;;;;;;19.25;4.05;;;14.40;99.90;;;;;;5053464;28;20048;-70
2022/05/27 00:24:45;;;;;;;10.60;3.05;;;14.20;99.90;;;;;;5071373;28;20031;-70
2022/05/27 00:27:10;;;;;;;9.57;3.17;;;14.30;99.90;;;;;;5053341;28;20503;-69
2022/05/27 00:29:36;;;;;;;18.38;3.60;;;14.10;99.90;;;;;;5070774;28;20041;-69
2022/05/27 00:32:03;;;;;;;15.52;3.78;;;14.20;99.90;;;;;;5071235;28;20041;-69
2022/05/27 00:34:29;;;;;;;22.35;4.93;;;14.30;99.90;;;;;;5053191;28;20040;-69
2022/05/27 00:36:54;;;;;;;19.17;4.15;;;14.10;99.90;;;;;;5053257;28;20033;-69
2022/05/27 00:39:20;;;;;;;18.33;3.80;;;14.20;99.90;;;;;;5077028;22;20469;-69
2022/05/27 00:41:46;;;;;;;16.63;3.42;;;14.20;99.90;;;;;;5053729;28;20040;-70
2022/05/27 00:44:11;;;;;;;18.25;4.47;;;14.00;99.90;;;;;;5053474;28;20509;-69
2022/05/27 00:46:41;;;;;;;21.75;4.07;;;13.90;99.90;;;;;;5071587;28;20059;-69
2022/05/27 00:49:17;;;;;;;21.40;3.60;;;14.00;99.90;;;;;;5052748;28;20079;-68
2022/05/27 00:51:48;;;;;;;19.20;4.55;;;14.10;99.90;;;;;;5036357;28;20139;-69
2022/05/27 00:54:18;;;;;;;15.05;3.88;;;14.00;99.90;;;;;;5053342;28;20119;-69
2022/05/27 00:56:49;;;;;;;19.70;4.30;;;14.00;99.90;;;;;;5053874;28;20058;-69
2022/05/27 00:59:26;;;;;;;20.63;4.50;;;13.80;99.90;;;;;;5052777;28;20032;-69
2022/05/27 01:01:53;;;;;;;19.67;4.22;;;13.80;99.90;;;;;;5071369;28;20040;-68
2022/05/27 01:04:19;;;;;;;18.50;4.18;;;13.70;99.90;;;;;;5036657;28;20036;-69
2022/05/27 01:06:45;;;;;;;23.05;5.45;;;13.90;99.90;;;;;;5071140;28;20477;-70
2022/05/27 01:09:12;;;;;;;17.02;4.10;;;13.90;99.90;;;;;;5070544;28;20044;-70
2022/05/27 01:11:40;;;;;;;20.42;3.95;;;13.80;99.90;;;;;;5053170;28;20094;-69
2022/05/27 01:14:31;;;;;;;18.40;4.15;;;13.70;99.90;;;;;;5053357;28;20029;-69
2022/05/27 01:17:21;;;;;;;18.63;4.07;;;13.90;99.90;;;;;;5035485;28;20043;-71
2022/05/27 01:20:21;;;;;;;18.95;4.50;;;13.70;99.90;;;;;;5070394;28;20050;-69
2022/05/27 01:23:09;;;;;;;16.27;3.70;;;13.60;99.90;;;;;;5053462;28;20036;-69
2022/05/27 01:26:05;;;;;;;21.70;4.65;;;13.60;99.90;;;;;;5053142;28;20040;-69
2022/05/27 01:29:09;;;;;;;17.48;3.63;;;13.70;99.90;;;;;;5053410;28;20076;-69
2022/05/27 01:31:38;;;;;;;15.68;3.70;;;13.70;99.90;;;;;;5043592;28;20063;-69
2022/05/27 01:34:43;;;;;;;21.05;4.28;;;13.50;99.90;;;;;;5074739;28;20048;-69
2022/05/27 01:37:34;;;;;;;17.98;4.15;;;13.40;99.90;;;;;;5056689;28;20087;-68
2022/05/27 01:40:14;;;;;;;19.27;3.75;;;13.30;99.90;;;;;;5056235;28;20040;-69
2022/05/27 01:43:09;;;;;;;18.33;3.90;;;13.30;99.90;;;;;;5074630;28;20124;-69
2022/05/27 01:45:56;;;;;;;18.52;3.60;;;13.50;99.90;;;;;;5074523;28;20036;-68
2022/05/27 01:48:32;;;;;;;19.30;3.30;;;13.40;99.90;;;;;;5056319;28;20036;-69
2022/05/27 01:51:06;;;;;;;18.73;4.28;;;13.20;99.90;;;;;;5073677;28;20106;-69
2022/05/27 01:53:50;;;;;;;14.38;3.13;;;13.30;99.90;;;;;;5074357;28;20037;-69
2022/05/27 01:56:22;;;;;;;19.30;4.25;;;13.40;99.90;;;;;;5056245;28;20116;-69
2022/05/27 01:59:02;;;;;;;11.73;2.58;;;13.30;99.90;;;;;;5056137;28;20041;-70
2022/05/27 02:01:52;;;;;;;21.13;3.30;;;13.40;99.90;;;;;;5056009;28;20036;-69
2022/05/27 02:04:28;;;;;;;14.52;3.53;;;13.40;99.90;;;;;;5055642;28;20055;-69
2022/05/27 02:07:02;;;;;;;13.77;3.75;;;13.40;99.90;;;;;;5056182;28;20056;-69
2022/05/27 02:09:45;;;;;;;14.50;3.67;;;13.00;99.90;;;;;;5055595;28;20045;-69
2022/05/27 02:12:20;;;;;;;11.07;3.47;;;13.20;99.90;;;;;;5055984;28;20063;-69
2022/05/27 02:15:01;;;;;;;10.30;3.25;;;12.90;99.90;;;;;;5073898;28;20037;-69
2022/05/27 02:17:35;;;;;;;15.88;3.35;;;13.20;99.90;;;;;;5054933;28;20097;-70
2022/05/27 02:20:16;;;;;;;17.58;3.45;;;13.10;99.90;;;;;;5073164;28;20041;-71
2022/05/27 02:22:50;;;;;;;16.20;3.72;;;13.10;99.90;;;;;;5073792;28;20115;-69
2022/05/27 02:25:22;;;;;;;17.98;4.65;;;13.20;99.90;;;;;;5055684;28;20040;-69
2022/05/27 02:28:01;;;;;;;18.70;3.35;;;13.10;99.90;;;;;;5073713;28;20464;-69
2022/05/27 02:30:29;;;;;;;14.07;2.75;;;13.10;99.90;;;;;;5054929;28;20036;-69
2022/05/27 02:35:50;;;;;;;16.67;3.88;;;12.90;99.90;;;;;;5055505;28;20045;-69
2022/05/27 02:38:16;;;;;;;12.65;2.92;;;12.90;99.90;;;;;;5055378;28;20482;-69
2022/05/27 02:41:14;;;;;;;15.80;4.00;;;12.70;99.90;;;;;;5037515;28;20036;-69
2022/05/27 02:43:53;;;;;;;17.15;3.70;;;12.70;99.90;;;;;;5073329;28;20063;-69
2022/05/27 02:46:48;;;;;;;19.00;4.25;;;12.60;99.90;;;;;;5055624;28;20091;-69
2022/05/27 02:49:34;;;;;;;19.10;2.92;;;12.80;99.90;;;;;;5072548;28;20040;-69
2022/05/27 02:52:17;;;;;;;15.13;3.25;;;12.90;99.90;;;;;;5038537;28;20123;-69
2022/05/27 02:54:56;;;;;;;;;;;12.80;99.90;;;;;;5055839;28;20064;-69
2022/05/27 02:57:28;;;;;;;14.55;2.97;;;12.70;99.90;;;;;;5055125;28;20404;-69
2022/05/27 02:59:54;;;;;;;16.02;2.92;;;12.70;99.90;;;;;;5054269;28;20143;-69
2022/05/27 03:02:20;;;;;;;9.80;2.70;;;12.70;99.90;;;;;;5072814;28;20655;-69
2022/05/27 03:04:58;;;;;;;11.90;3.10;;;12.70;99.90;;;;;;5055011;28;20198;-69
2022/05/27 03:07:45;;;;;;;10.95;3.20;;;12.70;99.90;;;;;;5038385;28;20085;-69
2022/05/27 03:10:51;;;;;;;20.60;3.35;;;12.70;99.90;;;;;;5054247;28;20047;-69
2022/05/27 03:13:57;;;;;;;17.85;3.85;;;12.70;99.90;;;;;;5055051;28;20044;-69
2022/05/27 03:16:45;;;;;;;19.67;5.07;;;12.70;99.90;;;;;;5054006;28;20044;-69
2022/05/27 03:19:11;;;;;;;15.95;3.15;;;;;;;;;;5072125;28;20409;-69
2022/05/27 03:21:55;;;;;;;15.38;3.08;;;12.50;99.90;;;;;;5054877;28;20525;-69
2022/05/27 03:24:56;;;;;;;17.38;3.60;;;12.50;99.90;;;;;;5072588;28;20459;-69
2022/05/27 03:27:42;;;;;;;13.23;3.97;;;12.50;99.90;;;;;;5039929;28;20048;-69
2022/05/27 03:30:12;;;;;;;19.92;3.67;;;12.50;99.90;;;;;;5053578;28;20040;-69
2022/05/27 03:32:55;;;;;;;21.48;3.50;;;12.50;99.90;;;;;;5054525;28;20116;-69
2022/05/27 03:35:32;;;;;;;10.95;3.00;;;12.50;99.90;;;;;;5054356;28;20542;-69
2022/05/27 03:38:10;;;;;;;10.63;3.30;;;12.50;99.90;;;;;;5072311;28;20044;-71
2022/05/27 03:40:47;;;;;;;19.40;3.15;;;12.50;99.90;;;;;;5071660;28;20478;-69
2022/05/27 03:43:13;;;;;;;12.73;3.08;;;12.50;99.90;;;;;;5054604;28;20045;-69
2022/05/27 03:45:51;;;;;;;18.27;3.72;;;12.60;99.90;;;;;;5054148;28;20040;-69
2022/05/27 03:48:18;;;;;;;15.50;4.40;;;12.50;99.90;;;;;;5054114;28;20461;-69
2022/05/27 03:50:46;;;;;;;19.02;3.80;;;12.50;99.90;;;;;;5053276;28;20524;-69
2022/05/27 03:53:12;;;;;;;19.10;3.95;;;12.60;99.90;;;;;;5053503;28;20040;-69
2022/05/27 03:55:44;;;;;;;17.33;3.50;;;12.60;99.90;;;;;;5037518;28;20044;-69
2022/05/27 03:58:10;;;;;;;15.43;3.45;;;;;;;;;;5053847;28;20510;-69
2022/05/27 04:00:35;;;;;;;11.95;2.90;;;12.60;99.90;;;;;;5053142;28;20040;-69
2022/05/27 04:03:01;;;;;;;20.58;3.78;;;;;;;;;;5072095;28;20145;-69
2022/05/27 04:05:27;;;;;;;14.18;3.72;;;;;;;;;;5072028;28;20045;-69
2022/05/27 04:07:53;;;;;;;15.60;3.88;;;;;;;;;;5071830;28;20379;-69
2022/05/27 04:10:19;;;;;;;11.98;3.45;;;12.50;99.90;;;;;;5071004;28;20045;-70
2022/05/27 04:12:45;;;;;;;16.35;2.67;;;12.70;99.90;;;;;;5053913;28;20032;-69
2022/05/27 04:15:11;;;;;;;14.25;2.45;;;;;;;;;;5053684;28;20036;-69
2022/05/27 04:17:36;;;;;;;16.33;3.42;;;12.70;99.90;;;;;;5051973;28;20075;-69
2022/05/27 04:20:10;;;;;;;12.20;2.67;;;12.70;99.90;;;;;;5052970;28;20064;-69
2022/05/27 04:22:37;;;;;;;10.25;2.47;;;12.80;99.90;;;;;;5053746;28;20044;-71
2022/05/27 04:25:03;;;;;;;10.10;2.83;;;12.60;99.90;;;;;;5071598;28;20036;-69
2022/05/27 04:27:29;;;;;;;12.63;3.53;;;;;;;;;;5053679;28;20478;-69
2022/05/27 04:29:56;;;;;;;11.82;2.80;;;12.90;99.90;;;;;;5052730;28;20040;-69
2022/05/27 04:32:22;;;;;;;12.40;3.40;;;12.80;99.90;;;;;;5071747;28;20124;-69
2022/05/27 04:34:52;;;;;;;12.25;3.22;;;12.70;99.90;;;;;;5071756;28;20032;-69
2022/05/27 04:37:18;;;;;;;13.73;3.65;;;12.90;99.90;;;;;;5071718;28;20036;-69
2022/05/27 04:39:44;;;;;;;13.93;4.07;;;;;;;;;;5070504;28;20094;-69
2022/05/27 04:42:11;;;;;;;17.10;3.60;;;12.80;99.90;;;;;;5071688;28;20127;-69
2022/05/27 04:44:37;;;;;;;9.55;2.97;;;;;;;;;;5036899;28;20083;-69
2022/05/27 04:47:03;;;;;;;13.27;3.10;;;12.80;99.90;;;;;;5071564;28;20486;-69
2022/05/27 04:52:13;;;;;;;12.45;2.92;;;;;;;;;;5053240;28;20461;-69
2022/05/27 04:54:39;;;;;;;6.78;2.53;;;12.80;99.90;;;;;;5071494;28;20446;-69
2022/05/27 04:57:05;;;;;;;9.50;2.35;;;12.80;99.90;;;;;;5053320;28;20079;-69
2022/05/27 04:59:35;;;;;;;13.88;3.22;;;12.80;99.90;;;;;;5070521;28;20036;-68
2022/05/27 05:02:01;;;;;;;13.10;2.75;;;;;;;;;;5071372;28;20051;-69
2022/05/27 05:04:27;;;;;;;12.55;2.55;;;12.80;99.90;;;;;;5055222;28;20414;-69
2022/05/27 05:06:53;;;;;;;13.32;3.25;;;12.70;99.90;;;;;;5075397;28;20127;-69
2022/05/27 05:09:18;;;;;;;14.77;4.43;;;12.70;99.90;;;;;;5074447;28;20137;-69
2022/05/27 05:11:44;;;;;;;9.63;2.83;;;12.90;99.90;;;;;;5040441;28;20190;-69
2022/05/27 05:14:09;;;;;;;18.27;2.72;;;12.80;99.90;;;;;;5057058;28;20036;-69
2022/05/27 05:16:35;;;;;;;18.58;2.88;;;;;;;;;;5075069;28;20033;-69
2022/05/27 05:19:01;;;;;;;13.98;3.95;;;;;;;;;;5054708;28;20495;-71
2022/05/27 05:21:27;;;;;;;13.80;2.38;;;;;;;;;;5056770;28;20518;-71
2022/05/27 05:23:54;;;;;;;9.30;2.25;;;;;;;;;;5057058;28;20335;-69
2022/05/27 05:26:20;;;;;;;13.82;2.97;;;;;;;;;;5057145;28;20048;-70
2022/05/27 05:28:46;;;;;;;16.13;3.22;;;;;;;;;;5074630;28;20048;-69
2022/05/27 05:31:16;;;;;;;11.10;2.80;;;13.00;99.90;;;;;;5073961;28;20051;-71
2022/05/27 05:33:42;;;;;;;11.85;2.85;;;;;;;;;;5074707;28;20076;-69
2022/05/27 05:36:08;;;;;;;14.75;3.40;;;;;;;;;;5056593;28;20468;-69
2022/05/27 05:38:33;;;;;;;16.85;3.33;;;13.50;99.90;;;;;;5056683;28;20070;-69
2022/05/27 05:40:59;;;;;;;14.20;2.45;;;13.40;99.90;;;;;;5055777;28;20123;-69
2022/05/27 05:43:25;;;;;;;13.73;3.10;;;13.40;99.90;;;;;;5056555;28;20127;-69
2022/05/27 05:45:50;;;;;;;11.07;2.75;;;13.60;99.90;;;;;;5039848;28;20044;-70
2022/05/27 05:48:16;;;;;;;12.23;2.70;;;13.50;99.90;;;;;;5056352;28;20052;-69
2022/05/27 05:50:41;;;;;;;13.80;2.63;;;13.50;99.90;;;;;;5073591;28;20036;-69
2022/05/27 05:53:07;;;;;;;14.85;2.92;;;13.60;99.90;;;;;;5039518;28;20036;-69
2022/05/27 05:55:35;;;;;;;20.48;3.20;;;13.50;99.90;;;;;;5056336;28;20043;-71
2022/05/27 05:58:02;;;;;;;15.40;3.15;;;13.60;99.90;;;;;;5074100;28;20078;-69
2022/05/27 06:00:28;;;;;;;12.38;3.38;;;;;;;;;;5055387;28;20049;-69
2022/05/27 06:02:54;;;;;;;15.45;3.03;;;13.20;99.90;;;;;;5074055;28;20053;-69
2022/05/27 06:05:21;;;;;;;18.02;3.38;;;13.90;99.90;;;;;;5074241;28;20128;-69
2022/05/27 06:07:47;;;;;;;11.65;2.53;;;13.70;99.90;;;;;;5073933;28;20517;-69
2022/05/27 06:10:15;;;;;;;15.20;3.50;;;13.90;99.90;;;;;;5055324;28;20040;-69
2022/05/27 06:12:41;;;;;;;14.82;3.03;;;13.80;99.90;;;;;;5055989;28;20123;-69
2022/05/27 06:15:10;;;;;;;13.85;3.28;;;14.00;99.90;;;;;;5055500;28;20090;-69
2022/05/27 06:17:36;;;;;;;20.02;4.03;;;;;;;;;;5071991;28;20044;-71
2022/05/27 06:20:04;;;;;;;12.63;2.97;;;14.00;99.90;;;;;;5038766;28;20113;-70
2022/05/27 06:22:31;;;;;;;11.55;3.13;;;14.00;99.90;;;;;;5055829;28;20059;-69
2022/05/27 06:24:58;;;;;;;11.52;3.10;;;14.10;99.90;;;;;;5055770;28;20101;-69
2022/05/27 06:27:24;;;;;;;13.75;2.80;;;14.00;99.90;;;;;;5055690;28;20048;-69
2022/05/27 06:35:17;;;;;;;9.23;2.13;;;14.20;99.90;;;;;;5055482;28;20132;-69
2022/05/27 06:37:43;;;;;;;15.38;2.65;;;14.30;99.90;;;;;;5038966;28;20127;-69
2022/05/27 06:40:09;;;;;;;10.27;2.58;;;14.30;99.90;;;;;;5055877;28;20048;-69
2022/05/27 06:42:37;;;;;;;13.52;2.42;;;14.40;99.90;;;;;;5073083;28;20036;-69
2022/05/27 06:45:03;;;;;;;11.30;2.78;;;;;;;;;;5038468;28;20083;-68
2022/05/27 06:47:29;;;;;;;9.48;2.28;;;14.70;99.90;;;;;;5055195;28;20049;-69
2022/05/27 06:49:55;;;;;;;11.18;3.22;;;14.60;99.90;;;;;;5054311;28;20047;-69
2022/05/27 06:52:20;;;;;;;11.00;2.72;;;14.50;99.90;;;;;;5055095;28;20426;-69
2022/05/27 06:54:46;;;;;;;13.15;3.03;;;14.50;99.90;;;;;;5055530;28;20141;-70
2022/05/27 06:57:12;;;;;;;14.68;3.22;;;14.60;99.90;;;;;;5055386;28;20079;-70
2022/05/27 06:59:38;;;;;;;19.95;3.92;;;;;;;;;;5054252;28;20495;-69
2022/05/27 07:02:05;;;;;;;16.20;3.33;;;14.50;99.90;;;;;;5021910;28;20033;-69
2022/05/27 07:04:31;;;;;;;13.40;3.28;;;;;;;;;;5055053;28;20052;-70
2022/05/27 07:06:57;;;;;;;13.88;2.78;;;;;;;;;;5072555;28;20032;-70
2022/05/27 07:09:23;;;;;;;12.07;3.28;;;14.70;99.90;;;;;;5037697;28;20119;-70
2022/05/27 07:11:52;;;;;;;11.30;2.80;;;14.70;99.90;;;;;;5054850;28;20036;-69
2022/05/27 07:14:18;;;;;;;14.55;3.20;;;;;;;;;;5073015;28;20036;-69
2022/05/27 07:16:46;;;;;;;14.38;3.15;;;14.90;99.90;;;;;;5054075;28;20105;-75
2022/05/27 07:19:11;;;;;;;11.63;2.50;;;14.90;99.90;;;;;;5053697;28;20456;-70
2022/05/27 07:21:39;;;;;;;14.18;2.83;;;14.70;99.90;;;;;;5055029;28;20040;-70
2022/05/27 07:24:09;;;;;;;11.10;2.85;;;14.60;99.90;;;;;;5054660;28;20055;-69
2022/05/27 07:26:36;;;;;;;14.30;3.25;;;14.40;99.90;;;;;;5054395;28;20036;-69
2022/05/27 07:29:01;;;;;;;10.90;2.92;;;14.80;99.90;;;;;;5054140;28;20071;-69
2022/05/27 07:31:27;;;;;;;17.42;3.08;;;14.70;99.90;;;;;;5071859;28;20078;-69
2022/05/27 07:33:53;;;;;;;13.98;3.03;;;;;;;;;;5072451;28;20072;-69
2022/05/27 07:36:19;;;;;;;10.73;2.72;;;;;;;;;;5037648;28;20113;-69
2022/05/27 07:38:45;;;;;;;16.30;2.97;;;14.90;99.90;;;;;;5037474;28;20090;-70
2022/05/27 07:41:11;;;;;;;10.00;2.67;;;14.70;99.90;;;;;;5053759;28;20040;-71
2022/05/27 07:43:37;;;;;;;11.23;2.78;;;;;;;;;;5054335;28;20048;-71
2022/05/27 07:46:04;;;;;;;20.42;3.83;;;;;;;;;;5054132;28;20040;-69
2022/05/27 07:48:30;;;;;;;19.60;3.25;;;;;;;;;;5072031;28;20429;-69
2022/05/27 07:50:56;;;;;;;17.90;4.05;;;14.50;99.90;;;;;;5071342;28;20587;-70
2022/05/27 07:53:22;;;;;;;13.00;2.58;;;14.40;99.90;;;;;;5054129;28;20076;-70
2022/05/27 07:55:48;;;;;;;15.63;2.88;;;14.90;99.90;;;;;;5071953;28;20478;-69
2022/05/27 07:58:14;;;;;;;15.85;5.18;;;;;;;;;;5054096;28;20086;-71
2022/05/27 08:00:40;;;;;;;13.88;3.15;;;;;;;;;;5053358;28;20162;-72
2022/05/27 08:03:06;;;;;;;14.73;3.45;;;14.30;99.90;;;;;;5053869;28;20044;-69
2022/05/27 08:05:32;;;;;;;13.35;2.85;;;14.90;99.90;;;;;;5037391;28;20498;-69
2022/05/27 08:08:00;;;;;;;9.93;2.42;;;15.10;99.90;;;;;;5071637;28;20470;-70
2022/05/27 08:10:30;;;;;;;16.85;3.22;;;15.00;99.90;;;;;;5053003;28;20721;-70
2022/05/27 08:12:56;;;;;;;17.17;3.42;;;15.20;99.90;;;;;;5071858;28;20028;-69
2022/05/27 08:15:21;;;;;;;11.55;3.63;;;15.20;99.90;;;;;;5053837;28;20418;-69
2022/05/27 08:17:47;;;;;;;19.98;2.97;;;15.00;99.90;;;;;;5051989;28;20079;-69
2022/05/27 08:20:19;;;;;;;13.07;3.72;;;14.70;99.90;;;;;;5070886;28;20036;-69
2022/05/27 08:22:46;;;;;;;13.52;2.35;;;15.30;99.90;;;;;;5053711;28;20395;-71
2022/05/27 08:25:12;;;;;;;13.35;2.92;;;15.20;99.90;;;;;;5036906;28;20036;-69
2022/05/27 08:27:39;;;;;;;13.80;3.63;;;15.20;99.90;;;;;;5053491;28;20041;-70
2022/05/27 08:30:07;;;;;;;15.52;3.67;;;15.20;99.90;;;;;;5052765;28;20120;-72
2022/05/27 08:32:32;;;;;;;12.70;3.40;;;14.60;99.90;;;;;;5053880;28;20068;-69
2022/05/27 08:38:01;;;;;;;13.77;2.75;;;15.30;99.90;;;;;;5053371;28;20429;-68
2022/05/27 08:40:42;;;;;;;15.82;3.28;;;15.50;99.90;;;;;;5074768;28;20123;-69
2022/05/27 08:43:16;;;;;;;11.43;3.10;;;15.30;99.90;;;;;;5057750;28;20037;-70
2022/05/27 08:46:13;;;;;;;13.48;2.95;;;14.90;99.90;;;;;;5075669;28;20051;-70
2022/05/27 08:48:42;;;;;;;11.35;2.53;;;15.20;99.90;;;;;;5057465;28;20040;-70
2022/05/27 08:51:18;;;;;;;13.35;2.45;;;15.20;99.90;;;;;;5074964;28;20048;-70
2022/05/27 08:54:02;;;;;;;16.23;2.83;;;14.90;99.90;;;;;;5057708;28;20032;-70
2022/05/27 08:59:27;;;;;;;18.40;3.47;;;15.40;99.90;;;;;;5056645;28;20087;-69
2022/05/27 09:02:30;;;;;;;13.73;2.95;;;15.60;99.90;;;;;;5057629;28;20044;-70
2022/05/27 09:05:21;;;;;;;17.00;2.60;;;15.60;99.90;;;;;;5057697;28;20041;-70
2022/05/27 09:07:49;;;;;;;12.32;2.35;;;15.20;99.90;;;;;;5057174;28;20139;-70
2022/05/27 09:10:40;;;;;;;13.00;2.63;;;15.00;99.90;;;;;;5074451;28;20071;-70
2022/05/27 09:13:12;;;;;;;9.10;3.13;;;15.10;99.90;;;;;;5040555;28;20044;-70
2022/05/27 09:16:04;;;;;;;16.17;3.08;;;15.40;99.90;;;;;;5057057;28;20052;-70
2022/05/27 09:18:40;;;;;;;17.85;3.97;;;15.70;99.90;;;;;;5038957;28;20398;-70
2022/05/27 09:21:21;;;;;;;12.02;2.60;;;15.40;99.90;;;;;;5056476;28;20136;-72
2022/05/27 09:24:11;;;;;;;7.57;2.42;;;14.90;99.90;;;;;;5075108;28;20037;-70
2022/05/27 09:26:50;;;;;;;12.27;2.58;;;15.30;99.90;;;;;;5056876;28;20047;-70
2022/05/27 09:29:31;;;;;;;16.50;2.75;;;15.60;99.90;;;;;;5073912;28;20044;-70
2022/05/27 09:32:11;;;;;;;7.63;2.38;;;15.60;99.90;;;;;;5074733;28;20564;-70
2022/05/27 09:34:40;;;;;;;10.95;2.55;;;15.90;99.90;;;;;;5040378;28;20036;-71
2022/05/27 09:37:09;;;;;;;18.88;4.07;;;16.00;99.90;;;;;;5023587;28;20033;-70
2022/05/27 09:39:35;;;;;;;9.98;3.13;;;15.60;99.90;;;;;;5055747;28;20033;-72
2022/05/27 09:42:06;;;;;;;15.85;3.33;;;16.50;99.90;;;;;;5039900;28;20080;-70
2022/05/27 09:44:45;;;;;;;16.35;2.58;;;16.10;99.90;;;;;;5040207;28;20397;-70
2022/05/27 09:47:11;;;;;;;13.00;2.85;;;16.30;99.90;;;;;;5074560;28;20040;-70
2022/05/27 09:49:37;;;;;;;12.63;2.88;;;15.40;99.90;;;;;;5073200;28;20032;-70
2022/05/27 09:52:05;;;;;;;15.00;2.75;;;15.60;99.90;;;;;;5055626;28;20036;-70
2022/05/27 09:54:49;;;;;;;11.65;2.97;;;15.40;99.90;;;;;;5056261;28;20059;-70
2022/05/27 09:57:22;;;;;;;11.50;2.05;;;15.50;99.90;;;;;;5056554;28;20040;-68
2022/05/27 09:59:54;;;;;;;20.65;4.30;;;15.80;99.90;;;;;;5055413;28;20048;-71
2022/05/27 10:02:35;;;;;;;21.83;5.13;;;15.40;99.90;;;;;;5074328;28;20142;-70
2022/05/27 10:05:14;;;;;;;13.15;3.00;;;15.70;99.90;;;;;;5056172;28;20043;-72
2022/05/27 10:07:50;;;;;;;16.08;3.40;;;15.90;99.90;;;;;;5039733;28;20033;-70
2022/05/27 10:10:37;;;;;;;15.18;3.53;;;15.90;99.90;;;;;;5055511;28;20044;-70
2022/05/27 10:13:30;;;;;;;11.35;2.50;;;16.20;99.90;;;;;;5056150;28;20032;-71
2022/05/27 10:16:10;;;;;;;9.63;2.13;;;16.40;99.90;;;;;;5056246;28;20402;-70
2022/05/27 10:18:37;;;;;;;21.60;3.67;;;16.00;99.90;;;;;;5054148;28;20328;-70
2022/05/27 10:21:19;;;;;;;11.35;2.53;;;15.80;99.90;;;;;;5038684;28;20123;-69
2022/05/27 10:23:54;;;;;;;16.33;2.60;;;15.60;99.90;;;;;;5056159;28;20032;-72
2022/05/27 10:26:27;;;;;;;12.70;3.42;;;15.80;99.90;;;;;;5039159;28;20491;-73
2022/05/27 10:29:10;;;;;;;12.18;2.50;;;16.20;99.90;;;;;;5038753;28;20087;-69
2022/05/27 10:31:36;;;;;;;13.10;2.70;;;15.90;99.80;;;;;;5055625;28;20128;-70
2022/05/27 10:34:02;;;;;;;15.07;3.53;;;15.80;99.90;;;;;;5073909;28;20072;-70
2022/05/27 10:36:54;;;;;;;12.85;2.78;;;15.40;99.90;;;;;;5039038;28;20043;-70
2022/05/27 10:39:28;;;;;;;16.17;3.03;;;15.40;99.90;;;;;;5054997;28;20040;-72
2022/05/27 10:42:25;;;;;;;11.52;2.72;;;15.80;99.90;;;;;;5055708;28;20093;-70
2022/05/27 10:45:03;;;;;;;14.48;2.78;;;15.30;99.90;;;;;;5055419;28;20078;-70
2022/05/27 10:47:47;;;;;;;15.88;2.85;;;15.40;99.90;;;;;;5073288;28;20062;-72
2022/05/27 10:50:29;;;;;;;15.88;3.15;;;15.60;99.90;;;;;;5054320;28;20498;-70
2022/05/27 10:53:12;;;;;;;12.15;2.70;;;15.80;99.90;;;;;;5055258;28;20072;-70
2022/05/27 10:55:55;;;;;;;12.85;2.60;;;15.80;99.90;;;;;;5073231;28;20040;-70
2022/05/27 11:04:49;;;;;;;10.05;2.40;;;15.50;99.90;;;;;;5073044;28;20044;-70
2022/05/27 11:07:43;;;;;;;13.40;2.95;;;15.50;99.90;;;;;;5055358;28;20458;-70
2022/05/27 11:10:43;;;;;;;11.93;3.13;;;15.90;99.90;;;;;;5054562;28;20044;-70
2022/05/27 11:16:44;;;;;;;12.00;3.35;;;15.50;99.90;;;;;;5054933;28;20044;-72
2022/05/27 11:19:45;;;;;;;17.33;3.85;;;15.40;99.90;;;;;;5053740;28;20047;-72
2022/05/27 11:22:35;;;;;;;11.50;2.83;;;14.80;99.90;;;;;;5072779;28;20123;-71
2022/05/27 11:25:19;;;;;;;15.65;3.03;;;15.00;99.90;;;;;;5072542;28;20039;-70
2022/05/27 11:28:22;;;;;;;18.20;2.92;;;15.20;99.90;;;;;;5038184;28;20048;-70
2022/05/27 11:31:20;;;;;;;12.57;3.45;;;15.30;99.90;;;;;;5067467;28;20052;-70
2022/05/27 11:34:05;;;;;;;20.48;4.28;;;15.40;99.90;;;;;;5054515;28;20440;-70
2022/05/27 11:36:55;;;;;;;16.45;3.88;;;15.30;99.90;;;;;;5038016;28;20105;-70
2022/05/27 11:39:34;;;;;;;15.68;3.00;;;15.10;99.90;;;;;;5053483;28;20040;-70
2022/05/27 11:42:07;;;;;;;18.17;3.00;;;15.10;99.90;;;;;;5054739;28;20127;-70
2022/05/27 11:44:41;;;;;;;15.52;3.53;;;15.20;99.90;;;;;;5072415;28;20040;-70
2022/05/27 11:47:43;;;;;;;13.70;3.13;;;15.50;99.90;;;;;;5072360;28;20045;-70
2022/05/27 11:50:27;;;;;;;15.20;3.17;;;15.60;99.90;;;;;;5071076;28;20047;-70
2022/05/27 11:53:11;;;;;;;;;;;15.50;99.90;;;;;;5054648;28;20101;-70
2022/05/27 11:56:07;;;;;;;10.57;3.13;;;15.20;99.90;;;;;;5072054;28;19924;-70
2022/05/27 11:58:51;;;;;;;13.90;3.30;;;15.00;99.90;;;;;;5054140;28;20082;-70
2022/05/27 12:01:35;;;;;;;18.50;3.13;;;15.00;99.90;;;;;;5053729;28;20045;-73
2022/05/27 12:04:19;;;;;;;14.30;3.28;;;15.10;99.90;;;;;;5053950;28;20040;-73
2022/05/27 12:07:04;;;;;;;11.10;2.50;;;15.10;99.90;;;;;;5054189;28;20071;-70
2022/05/27 12:09:49;;;;;;;12.70;2.95;;;15.10;99.90;;;;;;5071391;28;20044;-70
2022/05/27 12:12:25;;;;;;;15.27;4.03;;;14.80;99.90;;;;;;5071214;28;20048;-72
2022/05/27 12:14:59;;;;;;;18.50;3.30;;;15.00;99.90;;;;;;5053434;28;20041;-70
2022/05/27 12:17:37;;;;;;;18.13;5.80;;;15.10;99.90;;;;;;5036078;28;20552;-70
2022/05/27 12:20:05;;;;;;;23.35;3.53;;;15.30;99.90;;;;;;5071092;28;20045;-71
2022/05/27 12:22:33;;;;;;;18.45;2.90;;;15.30;99.90;;;;;;5053686;28;20048;-70
2022/05/27 12:25:32;;;;;;;11.43;3.22;;;15.10;99.90;;;;;;5053906;28;20130;-70
2022/05/27 12:28:00;;;;;;;22.50;3.33;;;15.10;99.90;;;;;;5036456;28;20048;-70
2022/05/27 12:30:40;;;;;;;10.48;3.20;;;15.00;99.90;;;;;;5053117;28;20036;-70
2022/05/27 12:33:10;;;;;;;16.20;3.67;;;15.10;99.90;;;;;;5037086;28;20033;-70
2022/05/27 12:35:35;;;;;;;16.90;3.67;;;15.50;99.90;;;;;;5053591;28;20120;-70
2022/05/27 12:40:29;;;;;;;18.88;2.92;;;15.30;99.90;;;;;;5110109;22;20114;-70
2022/05/27 12:42:58;;;;;;;18.17;3.40;;;15.30;99.90;;;;;;5073389;28;20316;-70
2022/05/27 12:45:46;;;;;;;14.50;2.85;;;15.20;99.90;;;;;;5091570;28;20036;-70
2022/05/27 12:48:35;;;;;;;13.18;2.70;;;15.50;99.90;;;;;;5073177;28;20043;-70
2022/05/27 12:51:25;;;;;;;19.10;3.47;;;15.60;99.90;;;;;;5072433;28;20040;-70
2022/05/27 12:53:54;;;;;;;13.80;2.92;;;15.20;99.90;;;;;;5045886;28;20045;-70
2022/05/27 13:02:16;;;;;;;15.15;2.70;;;15.40;99.90;;;;;;5091303;28;20047;-70
2022/05/27 13:04:47;;;;;;;12.70;3.15;;;15.60;99.90;;;;;;5073249;28;20036;-71
2022/05/27 13:07:14;;;;;;;11.15;2.28;;;15.70;99.90;;;;;;5073350;28;20574;-69
2022/05/27 13:09:42;;;;;;;11.20;2.53;;;16.20;99.90;;;;;;5072176;28;20052;-70
2022/05/27 13:12:10;;;;;;;13.88;3.10;;;16.00;99.90;;;;;;5073140;28;20032;-70
2022/05/27 13:14:54;;;;;;;9.63;2.60;;;15.80;99.90;;;;;;5056388;28;20036;-70
2022/05/27 13:17:28;;;;;;;11.60;2.63;;;16.50;99.90;;;;;;5072143;28;20093;-70
2022/05/27 13:20:17;;;;;;;16.25;3.40;;;15.80;99.90;;;;;;5090446;28;20492;-70
2022/05/27 13:22:58;;;;;;;13.23;2.78;;;15.50;99.90;;;;;;5063491;28;20158;-70
2022/05/27 13:25:34;;;;;;;10.70;2.60;;;15.70;99.90;;;;;;5093430;28;20409;-70
2022/05/27 13:28:07;;;;;;;13.18;2.80;;;15.90;99.90;;;;;;5095488;28;20044;-71
2022/05/27 13:30:56;;;;;;;17.98;3.28;;;15.60;99.90;;;;;;5094277;28;20048;-71
2022/05/27 13:33:58;;;;;;;13.48;3.40;;;15.80;99.90;;;;;;5060273;28;20481;-71
2022/05/27 13:36:28;;;;;;;16.20;3.03;;;16.00;99.90;;;;;;5076719;28;20032;-71
2022/05/27 13:39:04;;;;;;;13.23;2.85;;;16.00;99.90;;;;;;5094312;28;20039;-70
2022/05/27 13:41:40;;;;;;;13.95;3.08;;;15.40;99.90;;;;;;5076515;28;20442;-70
2022/05/27 13:44:06;;;;;;;12.77;2.72;;;15.20;99.90;;;;;;5059807;28;20069;-70
2022/05/27 13:46:36;;;;;;;16.60;3.00;;;15.40;99.90;;;;;;5076113;28;20051;-70
2022/05/27 13:49:24;;;;;;;16.98;3.88;;;15.20;99.90;;;;;;5093804;28;20036;-70
2022/05/27 13:51:50;;;;;;;12.25;3.70;;;15.40;99.90;;;;;;5076216;28;20047;-70
2022/05/27 13:54:32;;;;;;;15.85;3.42;;;15.30;99.90;;;;;;5094259;28;20036;-70
2022/05/27 13:57:02;;;;;;;14.35;2.47;;;15.60;99.90;;;;;;5059696;28;20035;-68